sensor_id;sensor_type;location;lat;lon;timestamp;P1;durP1;ratioP1;P2;durP2;ratioP2
11398;SDS011;5755;48.116;11.608;2023-03-03T00:00:37;40.90;;;22.33;;
11398;SDS011;5755;48.116;11.608;2023-03-03T00:03:04;39.90;;;21.77;;
11398;SDS011;5755;48.116;11.608;2023-03-03T00:05:35;42.57;;;22.23;;
11398;SDS011;5755;48.116;11.608;2023-03-03T00:08:02;42.00;;;21.90;;
11398;SDS011;5755;48.116;11.608;2023-03-03T00:10:30;39.00;;;21.47;;
11398;SDS011;5755;48.116;11.608;2023-03-03T00:12:57;39.87;;;21.43;;
11398;SDS011;5755;48.116;11.608;2023-03-03T00:15:24;45.67;;;22.27;;
11398;SDS011;5755;48.116;11.608;2023-03-03T00:17:52;44.90;;;22.57;;
11398;SDS011;5755;48.116;11.608;2023-03-03T00:20:21;40.87;;;21.57;;
11398;SDS011;5755;48.116;11.608;2023-03-03T00:23:05;37.23;;;21.30;;
11398;SDS011;5755;48.116;11.608;2023-03-03T00:25:42;46.53;;;22.00;;
11398;SDS011;5755;48.116;11.608;2023-03-03T00:28:24;42.03;;;21.63;;
11398;SDS011;5755;48.116;11.608;2023-03-03T00:30:53;39.93;;;21.73;;
11398;SDS011;5755;48.116;11.608;2023-03-03T00:33:24;41.37;;;22.03;;
11398;SDS011;5755;48.116;11.608;2023-03-03T00:35:54;43.13;;;21.30;;
11398;SDS011;5755;48.116;11.608;2023-03-03T00:38:22;42.17;;;22.77;;
11398;SDS011;5755;48.116;11.608;2023-03-03T00:40:49;46.37;;;22.30;;
11398;SDS011;5755;48.116;11.608;2023-03-03T00:43:20;46.20;;;22.60;;
11398;SDS011;5755;48.116;11.608;2023-03-03T00:45:48;40.77;;;20.90;;
11398;SDS011;5755;48.116;11.608;2023-03-03T00:48:20;39.87;;;21.47;;
11398;SDS011;5755;48.116;11.608;2023-03-03T00:50:49;45.40;;;21.93;;
11398;SDS011;5755;48.116;11.608;2023-03-03T00:53:17;42.77;;;22.50;;
11398;SDS011;5755;48.116;11.608;2023-03-03T00:55:47;42.47;;;22.20;;
11398;SDS011;5755;48.116;11.608;2023-03-03T00:58:15;41.83;;;21.97;;
11398;SDS011;5755;48.116;11.608;2023-03-03T01:00:42;42.77;;;22.10;;
11398;SDS011;5755;48.116;11.608;2023-03-03T01:03:11;41.83;;;21.87;;
11398;SDS011;5755;48.116;11.608;2023-03-03T01:05:39;39.30;;;21.30;;
11398;SDS011;5755;48.116;11.608;2023-03-03T01:08:06;41.43;;;21.17;;
11398;SDS011;5755;48.116;11.608;2023-03-03T01:10:33;37.43;;;20.50;;
11398;SDS011;5755;48.116;11.608;2023-03-03T01:13:04;37.77;;;21.23;;
11398;SDS011;5755;48.116;11.608;2023-03-03T01:15:31;38.70;;;21.07;;
11398;SDS011;5755;48.116;11.608;2023-03-03T01:17:58;38.50;;;20.93;;
11398;SDS011;5755;48.116;11.608;2023-03-03T01:20:25;43.63;;;22.00;;
11398;SDS011;5755;48.116;11.608;2023-03-03T01:22:52;40.80;;;21.07;;
11398;SDS011;5755;48.116;11.608;2023-03-03T01:25:19;38.13;;;19.50;;
11398;SDS011;5755;48.116;11.608;2023-03-03T01:27:46;39.87;;;20.83;;
11398;SDS011;5755;48.116;11.608;2023-03-03T01:30:15;39.40;;;20.70;;
11398;SDS011;5755;48.116;11.608;2023-03-03T01:32:42;38.27;;;20.20;;
11398;SDS011;5755;48.116;11.608;2023-03-03T01:35:08;39.23;;;20.67;;
11398;SDS011;5755;48.116;11.608;2023-03-03T01:37:35;38.93;;;21.67;;
11398;SDS011;5755;48.116;11.608;2023-03-03T01:40:03;37.80;;;21.00;;
11398;SDS011;5755;48.116;11.608;2023-03-03T01:42:31;36.90;;;20.13;;
11398;SDS011;5755;48.116;11.608;2023-03-03T01:45:12;37.33;;;19.63;;
11398;SDS011;5755;48.116;11.608;2023-03-03T01:47:43;38.83;;;20.60;;
11398;SDS011;5755;48.116;11.608;2023-03-03T01:50:14;38.37;;;21.17;;
11398;SDS011;5755;48.116;11.608;2023-03-03T01:52:46;39.97;;;20.70;;
11398;SDS011;5755;48.116;11.608;2023-03-03T01:55:14;38.67;;;20.27;;
11398;SDS011;5755;48.116;11.608;2023-03-03T01:57:46;39.77;;;21.87;;
11398;SDS011;5755;48.116;11.608;2023-03-03T02:00:19;40.27;;;21.77;;
11398;SDS011;5755;48.116;11.608;2023-03-03T02:02:46;39.97;;;20.77;;
11398;SDS011;5755;48.116;11.608;2023-03-03T02:05:14;42.53;;;21.37;;
11398;SDS011;5755;48.116;11.608;2023-03-03T02:07:41;37.80;;;20.83;;
11398;SDS011;5755;48.116;11.608;2023-03-03T02:10:10;37.87;;;19.53;;
11398;SDS011;5755;48.116;11.608;2023-03-03T02:12:39;41.40;;;21.00;;
11398;SDS011;5755;48.116;11.608;2023-03-03T02:15:14;37.97;;;20.40;;
11398;SDS011;5755;48.116;11.608;2023-03-03T02:17:43;42.53;;;21.20;;
11398;SDS011;5755;48.116;11.608;2023-03-03T02:20:14;42.13;;;20.80;;
11398;SDS011;5755;48.116;11.608;2023-03-03T02:22:47;41.27;;;21.07;;
11398;SDS011;5755;48.116;11.608;2023-03-03T02:25:20;42.37;;;21.13;;
11398;SDS011;5755;48.116;11.608;2023-03-03T02:27:53;39.47;;;20.57;;
11398;SDS011;5755;48.116;11.608;2023-03-03T02:30:22;42.10;;;21.93;;
11398;SDS011;5755;48.116;11.608;2023-03-03T02:32:49;39.83;;;21.17;;
11398;SDS011;5755;48.116;11.608;2023-03-03T02:35:26;42.47;;;21.50;;
11398;SDS011;5755;48.116;11.608;2023-03-03T02:37:55;39.33;;;20.30;;
11398;SDS011;5755;48.116;11.608;2023-03-03T02:40:26;40.67;;;21.70;;
11398;SDS011;5755;48.116;11.608;2023-03-03T02:43:01;42.77;;;21.87;;
11398;SDS011;5755;48.116;11.608;2023-03-03T02:45:31;41.17;;;21.70;;
11398;SDS011;5755;48.116;11.608;2023-03-03T02:47:58;39.47;;;21.27;;
11398;SDS011;5755;48.116;11.608;2023-03-03T02:50:25;38.33;;;20.57;;
11398;SDS011;5755;48.116;11.608;2023-03-03T02:52:51;36.40;;;19.40;;
11398;SDS011;5755;48.116;11.608;2023-03-03T02:55:18;37.53;;;20.17;;
11398;SDS011;5755;48.116;11.608;2023-03-03T02:57:45;37.50;;;20.43;;
11398;SDS011;5755;48.116;11.608;2023-03-03T03:02:42;37.13;;;19.30;;
11398;SDS011;5755;48.116;11.608;2023-03-03T03:05:09;35.60;;;19.37;;
11398;SDS011;5755;48.116;11.608;2023-03-03T03:07:36;38.30;;;19.50;;
11398;SDS011;5755;48.116;11.608;2023-03-03T03:10:03;38.10;;;19.97;;
11398;SDS011;5755;48.116;11.608;2023-03-03T03:12:30;36.47;;;19.43;;
11398;SDS011;5755;48.116;11.608;2023-03-03T03:14:57;36.87;;;20.03;;
11398;SDS011;5755;48.116;11.608;2023-03-03T03:17:26;38.80;;;19.77;;
11398;SDS011;5755;48.116;11.608;2023-03-03T03:19:52;35.63;;;19.90;;
11398;SDS011;5755;48.116;11.608;2023-03-03T03:22:19;35.57;;;19.73;;
11398;SDS011;5755;48.116;11.608;2023-03-03T03:24:46;36.30;;;18.73;;
11398;SDS011;5755;48.116;11.608;2023-03-03T03:27:13;39.27;;;21.53;;
11398;SDS011;5755;48.116;11.608;2023-03-03T03:29:40;35.00;;;19.97;;
11398;SDS011;5755;48.116;11.608;2023-03-03T03:32:07;40.63;;;20.57;;
11398;SDS011;5755;48.116;11.608;2023-03-03T03:34:35;37.80;;;20.17;;
11398;SDS011;5755;48.116;11.608;2023-03-03T03:37:02;38.17;;;19.67;;
11398;SDS011;5755;48.116;11.608;2023-03-03T03:39:28;35.47;;;19.73;;
11398;SDS011;5755;48.116;11.608;2023-03-03T03:41:55;34.93;;;19.13;;
11398;SDS011;5755;48.116;11.608;2023-03-03T03:44:22;36.30;;;20.33;;
11398;SDS011;5755;48.116;11.608;2023-03-03T03:46:49;35.87;;;19.93;;
11398;SDS011;5755;48.116;11.608;2023-03-03T03:49:16;36.27;;;19.87;;
11398;SDS011;5755;48.116;11.608;2023-03-03T03:51:44;36.27;;;19.90;;
11398;SDS011;5755;48.116;11.608;2023-03-03T03:54:11;32.60;;;18.80;;
11398;SDS011;5755;48.116;11.608;2023-03-03T03:56:38;34.60;;;20.10;;
11398;SDS011;5755;48.116;11.608;2023-03-03T03:59:05;35.23;;;19.33;;
11398;SDS011;5755;48.116;11.608;2023-03-03T04:01:33;36.80;;;19.47;;
11398;SDS011;5755;48.116;11.608;2023-03-03T04:03:59;33.63;;;18.83;;
11398;SDS011;5755;48.116;11.608;2023-03-03T04:06:28;35.20;;;19.37;;
11398;SDS011;5755;48.116;11.608;2023-03-03T04:08:56;36.23;;;19.60;;
11398;SDS011;5755;48.116;11.608;2023-03-03T04:11:23;33.87;;;19.67;;
11398;SDS011;5755;48.116;11.608;2023-03-03T04:13:49;35.70;;;19.47;;
11398;SDS011;5755;48.116;11.608;2023-03-03T04:16:16;35.80;;;19.77;;
11398;SDS011;5755;48.116;11.608;2023-03-03T04:18:43;34.20;;;19.07;;
11398;SDS011;5755;48.116;11.608;2023-03-03T04:21:11;32.93;;;19.07;;
11398;SDS011;5755;48.116;11.608;2023-03-03T04:23:41;35.93;;;19.33;;
11398;SDS011;5755;48.116;11.608;2023-03-03T04:26:09;37.07;;;19.63;;
11398;SDS011;5755;48.116;11.608;2023-03-03T04:28:36;35.20;;;20.07;;
11398;SDS011;5755;48.116;11.608;2023-03-03T04:31:03;34.60;;;20.27;;
11398;SDS011;5755;48.116;11.608;2023-03-03T04:33:30;32.93;;;19.33;;
11398;SDS011;5755;48.116;11.608;2023-03-03T04:35:57;37.00;;;20.20;;
11398;SDS011;5755;48.116;11.608;2023-03-03T04:38:24;35.27;;;19.33;;
11398;SDS011;5755;48.116;11.608;2023-03-03T04:40:51;36.13;;;18.77;;
11398;SDS011;5755;48.116;11.608;2023-03-03T04:43:19;32.03;;;18.20;;
11398;SDS011;5755;48.116;11.608;2023-03-03T04:45:46;31.03;;;18.17;;
11398;SDS011;5755;48.116;11.608;2023-03-03T04:48:13;33.27;;;18.77;;
11398;SDS011;5755;48.116;11.608;2023-03-03T04:50:40;33.83;;;19.37;;
11398;SDS011;5755;48.116;11.608;2023-03-03T04:53:07;31.23;;;18.27;;
11398;SDS011;5755;48.116;11.608;2023-03-03T04:55:34;32.17;;;18.53;;
11398;SDS011;5755;48.116;11.608;2023-03-03T04:58:02;31.60;;;18.63;;
11398;SDS011;5755;48.116;11.608;2023-03-03T05:00:31;36.03;;;20.27;;
11398;SDS011;5755;48.116;11.608;2023-03-03T05:02:58;35.33;;;19.47;;
11398;SDS011;5755;48.116;11.608;2023-03-03T05:05:25;34.83;;;20.07;;
11398;SDS011;5755;48.116;11.608;2023-03-03T05:07:52;38.80;;;21.80;;
11398;SDS011;5755;48.116;11.608;2023-03-03T05:10:19;40.27;;;21.10;;
11398;SDS011;5755;48.116;11.608;2023-03-03T05:12:46;37.17;;;21.00;;
11398;SDS011;5755;48.116;11.608;2023-03-03T05:15:13;40.80;;;21.53;;
11398;SDS011;5755;48.116;11.608;2023-03-03T05:17:41;40.30;;;22.43;;
11398;SDS011;5755;48.116;11.608;2023-03-03T05:20:09;40.63;;;21.50;;
11398;SDS011;5755;48.116;11.608;2023-03-03T05:22:37;41.47;;;22.90;;
11398;SDS011;5755;48.116;11.608;2023-03-03T05:25:04;38.30;;;22.70;;
11398;SDS011;5755;48.116;11.608;2023-03-03T05:27:33;44.20;;;23.63;;
11398;SDS011;5755;48.116;11.608;2023-03-03T05:30:00;43.87;;;25.20;;
11398;SDS011;5755;48.116;11.608;2023-03-03T05:32:26;45.03;;;25.30;;
11398;SDS011;5755;48.116;11.608;2023-03-03T05:34:55;44.63;;;25.37;;
11398;SDS011;5755;48.116;11.608;2023-03-03T05:37:21;47.77;;;25.67;;
11398;SDS011;5755;48.116;11.608;2023-03-03T05:39:49;42.37;;;24.20;;
11398;SDS011;5755;48.116;11.608;2023-03-03T05:42:16;44.43;;;23.63;;
11398;SDS011;5755;48.116;11.608;2023-03-03T05:44:43;47.17;;;24.53;;
11398;SDS011;5755;48.116;11.608;2023-03-03T05:47:10;45.83;;;25.43;;
11398;SDS011;5755;48.116;11.608;2023-03-03T05:49:36;51.70;;;25.47;;
11398;SDS011;5755;48.116;11.608;2023-03-03T05:52:05;50.37;;;25.97;;
11398;SDS011;5755;48.116;11.608;2023-03-03T05:54:33;47.00;;;25.33;;
11398;SDS011;5755;48.116;11.608;2023-03-03T05:57:00;45.83;;;25.73;;
11398;SDS011;5755;48.116;11.608;2023-03-03T05:59:26;48.87;;;26.27;;
11398;SDS011;5755;48.116;11.608;2023-03-03T06:01:53;48.07;;;26.17;;
11398;SDS011;5755;48.116;11.608;2023-03-03T06:04:20;48.23;;;27.13;;
11398;SDS011;5755;48.116;11.608;2023-03-03T06:06:47;46.87;;;26.20;;
11398;SDS011;5755;48.116;11.608;2023-03-03T06:09:15;51.33;;;27.00;;
11398;SDS011;5755;48.116;11.608;2023-03-03T06:11:43;51.27;;;27.77;;
11398;SDS011;5755;48.116;11.608;2023-03-03T06:14:10;50.90;;;28.13;;
11398;SDS011;5755;48.116;11.608;2023-03-03T06:16:36;52.87;;;28.30;;
11398;SDS011;5755;48.116;11.608;2023-03-03T06:19:03;52.13;;;27.50;;
11398;SDS011;5755;48.116;11.608;2023-03-03T06:21:30;46.90;;;27.03;;
11398;SDS011;5755;48.116;11.608;2023-03-03T06:23:57;51.17;;;27.40;;
11398;SDS011;5755;48.116;11.608;2023-03-03T06:26:25;48.67;;;27.40;;
11398;SDS011;5755;48.116;11.608;2023-03-03T06:28:52;52.23;;;28.07;;
11398;SDS011;5755;48.116;11.608;2023-03-03T06:31:19;54.57;;;27.73;;
11398;SDS011;5755;48.116;11.608;2023-03-03T06:33:46;52.50;;;28.37;;
11398;SDS011;5755;48.116;11.608;2023-03-03T06:36:13;54.17;;;29.30;;
11398;SDS011;5755;48.116;11.608;2023-03-03T06:38:40;53.87;;;28.63;;
11398;SDS011;5755;48.116;11.608;2023-03-03T06:41:07;48.10;;;27.30;;
11398;SDS011;5755;48.116;11.608;2023-03-03T06:43:35;50.03;;;28.60;;
11398;SDS011;5755;48.116;11.608;2023-03-03T06:46:02;56.00;;;29.30;;
11398;SDS011;5755;48.116;11.608;2023-03-03T06:48:29;57.40;;;29.07;;
11398;SDS011;5755;48.116;11.608;2023-03-03T06:50:57;52.90;;;28.43;;
11398;SDS011;5755;48.116;11.608;2023-03-03T06:53:25;49.07;;;28.27;;
11398;SDS011;5755;48.116;11.608;2023-03-03T06:55:53;55.97;;;29.70;;
11398;SDS011;5755;48.116;11.608;2023-03-03T06:58:20;54.37;;;29.73;;
11398;SDS011;5755;48.116;11.608;2023-03-03T07:00:52;52.60;;;28.23;;
11398;SDS011;5755;48.116;11.608;2023-03-03T07:03:20;53.53;;;30.37;;
11398;SDS011;5755;48.116;11.608;2023-03-03T07:05:50;53.03;;;28.87;;
11398;SDS011;5755;48.116;11.608;2023-03-03T07:08:18;52.23;;;29.20;;
11398;SDS011;5755;48.116;11.608;2023-03-03T07:10:48;53.90;;;29.97;;
11398;SDS011;5755;48.116;11.608;2023-03-03T07:13:16;51.53;;;28.17;;
11398;SDS011;5755;48.116;11.608;2023-03-03T07:15:46;54.53;;;29.23;;
11398;SDS011;5755;48.116;11.608;2023-03-03T07:18:24;52.33;;;29.60;;
11398;SDS011;5755;48.116;11.608;2023-03-03T07:20:57;50.13;;;27.63;;
11398;SDS011;5755;48.116;11.608;2023-03-03T07:23:25;56.57;;;29.93;;
11398;SDS011;5755;48.116;11.608;2023-03-03T07:26:07;54.50;;;29.27;;
11398;SDS011;5755;48.116;11.608;2023-03-03T07:28:36;56.00;;;29.57;;
11398;SDS011;5755;48.116;11.608;2023-03-03T07:31:15;54.30;;;29.57;;
11398;SDS011;5755;48.116;11.608;2023-03-03T07:33:51;57.67;;;29.93;;
11398;SDS011;5755;48.116;11.608;2023-03-03T07:36:25;55.30;;;29.73;;
11398;SDS011;5755;48.116;11.608;2023-03-03T07:38:56;54.67;;;29.40;;
11398;SDS011;5755;48.116;11.608;2023-03-03T07:41:25;54.13;;;29.37;;
11398;SDS011;5755;48.116;11.608;2023-03-03T07:43:53;55.40;;;29.73;;
11398;SDS011;5755;48.116;11.608;2023-03-03T07:46:26;56.17;;;29.73;;
11398;SDS011;5755;48.116;11.608;2023-03-03T07:48:57;56.13;;;29.73;;
11398;SDS011;5755;48.116;11.608;2023-03-03T07:51:26;59.40;;;30.27;;
11398;SDS011;5755;48.116;11.608;2023-03-03T07:53:57;54.23;;;30.20;;
11398;SDS011;5755;48.116;11.608;2023-03-03T07:56:38;54.80;;;29.87;;
11398;SDS011;5755;48.116;11.608;2023-03-03T07:59:08;56.00;;;29.37;;
11398;SDS011;5755;48.116;11.608;2023-03-03T08:01:45;61.30;;;30.50;;
11398;SDS011;5755;48.116;11.608;2023-03-03T08:04:19;56.80;;;30.60;;
11398;SDS011;5755;48.116;11.608;2023-03-03T08:06:53;52.70;;;29.90;;
11398;SDS011;5755;48.116;11.608;2023-03-03T08:09:24;49.23;;;28.87;;
11398;SDS011;5755;48.116;11.608;2023-03-03T08:12:25;53.07;;;29.40;;
11398;SDS011;5755;48.116;11.608;2023-03-03T08:15:06;50.97;;;28.87;;
11398;SDS011;5755;48.116;11.608;2023-03-03T08:17:45;55.00;;;29.03;;
11398;SDS011;5755;48.116;11.608;2023-03-03T08:23:12;53.47;;;29.87;;
11398;SDS011;5755;48.116;11.608;2023-03-03T08:25:40;53.67;;;29.23;;
11398;SDS011;5755;48.116;11.608;2023-03-03T08:28:07;50.70;;;29.73;;
11398;SDS011;5755;48.116;11.608;2023-03-03T08:30:35;53.57;;;30.33;;
11398;SDS011;5755;48.116;11.608;2023-03-03T08:33:02;51.97;;;30.43;;
11398;SDS011;5755;48.116;11.608;2023-03-03T08:35:29;55.33;;;30.93;;
11398;SDS011;5755;48.116;11.608;2023-03-03T08:37:57;56.60;;;29.20;;
11398;SDS011;5755;48.116;11.608;2023-03-03T08:40:24;54.97;;;31.53;;
11398;SDS011;5755;48.116;11.608;2023-03-03T08:42:51;53.63;;;30.27;;
11398;SDS011;5755;48.116;11.608;2023-03-03T08:45:19;52.57;;;30.07;;
11398;SDS011;5755;48.116;11.608;2023-03-03T08:47:46;58.97;;;30.73;;
11398;SDS011;5755;48.116;11.608;2023-03-03T08:50:13;50.57;;;30.10;;
11398;SDS011;5755;48.116;11.608;2023-03-03T08:52:41;55.73;;;30.03;;
11398;SDS011;5755;48.116;11.608;2023-03-03T08:55:10;51.77;;;28.93;;
11398;SDS011;5755;48.116;11.608;2023-03-03T08:57:38;53.60;;;30.85;;
11398;SDS011;5755;48.116;11.608;2023-03-03T09:00:05;54.27;;;31.13;;
11398;SDS011;5755;48.116;11.608;2023-03-03T09:02:34;51.57;;;30.27;;
11398;SDS011;5755;48.116;11.608;2023-03-03T09:05:02;51.37;;;29.97;;
11398;SDS011;5755;48.116;11.608;2023-03-03T09:07:29;69.88;;;39.22;;
11398;SDS011;5755;48.116;11.608;2023-03-03T09:09:56;52.85;;;31.08;;
11398;SDS011;5755;48.116;11.608;2023-03-03T09:12:26;58.72;;;33.88;;
11398;SDS011;5755;48.116;11.608;2023-03-03T09:14:55;58.17;;;32.80;;
11398;SDS011;5755;48.116;11.608;2023-03-03T09:17:26;57.65;;;33.72;;
11398;SDS011;5755;48.116;11.608;2023-03-03T09:19:57;72.30;;;42.13;;
11398;SDS011;5755;48.116;11.608;2023-03-03T09:22:26;61.55;;;34.83;;
11398;SDS011;5755;48.116;11.608;2023-03-03T09:24:55;48.33;;;29.67;;
11398;SDS011;5755;48.116;11.608;2023-03-03T09:27:26;52.78;;;29.27;;
11398;SDS011;5755;48.116;11.608;2023-03-03T09:29:54;59.10;;;31.30;;
11398;SDS011;5755;48.116;11.608;2023-03-03T09:32:29;50.13;;;31.27;;
11398;SDS011;5755;48.116;11.608;2023-03-03T09:34:59;50.47;;;31.13;;
11398;SDS011;5755;48.116;11.608;2023-03-03T09:37:48;63.72;;;33.00;;
11398;SDS011;5755;48.116;11.608;2023-03-03T09:40:25;53.10;;;30.63;;
11398;SDS011;5755;48.116;11.608;2023-03-03T09:43:08;54.70;;;30.75;;
11398;SDS011;5755;48.116;11.608;2023-03-03T09:45:44;53.60;;;32.28;;
11398;SDS011;5755;48.116;11.608;2023-03-03T09:48:28;51.90;;;30.85;;
11398;SDS011;5755;48.116;11.608;2023-03-03T09:51:10;49.70;;;31.08;;
11398;SDS011;5755;48.116;11.608;2023-03-03T09:53:51;52.50;;;32.08;;
11398;SDS011;5755;48.116;11.608;2023-03-03T09:56:29;58.22;;;31.65;;
11398;SDS011;5755;48.116;11.608;2023-03-03T09:59:04;53.10;;;30.55;;
11398;SDS011;5755;48.116;11.608;2023-03-03T10:01:52;54.42;;;31.27;;
11398;SDS011;5755;48.116;11.608;2023-03-03T10:07:27;55.35;;;32.05;;
11398;SDS011;5755;48.116;11.608;2023-03-03T10:10:18;56.72;;;30.33;;
11398;SDS011;5755;48.116;11.608;2023-03-03T10:13:01;56.20;;;31.08;;
11398;SDS011;5755;48.116;11.608;2023-03-03T10:15:41;56.63;;;30.02;;
11398;SDS011;5755;48.116;11.608;2023-03-03T10:18:19;54.90;;;31.48;;
11398;SDS011;5755;48.116;11.608;2023-03-03T10:21:00;56.42;;;31.80;;
11398;SDS011;5755;48.116;11.608;2023-03-03T10:26:25;53.75;;;31.58;;
11398;SDS011;5755;48.116;11.608;2023-03-03T10:32:03;51.88;;;31.20;;
11398;SDS011;5755;48.116;11.608;2023-03-03T10:34:53;55.22;;;31.20;;
11398;SDS011;5755;48.116;11.608;2023-03-03T10:37:41;56.58;;;29.90;;
11398;SDS011;5755;48.116;11.608;2023-03-03T10:40:20;51.50;;;31.13;;
11398;SDS011;5755;48.116;11.608;2023-03-03T10:42:58;53.90;;;31.08;;
11398;SDS011;5755;48.116;11.608;2023-03-03T10:45:39;56.17;;;30.63;;
11398;SDS011;5755;48.116;11.608;2023-03-03T10:48:31;52.47;;;31.88;;
11398;SDS011;5755;48.116;11.608;2023-03-03T10:51:17;52.08;;;31.48;;
11398;SDS011;5755;48.116;11.608;2023-03-03T10:53:53;47.80;;;30.70;;
11398;SDS011;5755;48.116;11.608;2023-03-03T10:56:31;48.90;;;30.15;;
11398;SDS011;5755;48.116;11.608;2023-03-03T10:59:07;52.85;;;30.85;;
11398;SDS011;5755;48.116;11.608;2023-03-03T11:01:44;58.85;;;30.05;;
11398;SDS011;5755;48.116;11.608;2023-03-03T11:04:22;53.08;;;30.30;;
11398;SDS011;5755;48.116;11.608;2023-03-03T11:07:03;47.97;;;30.67;;
11398;SDS011;5755;48.116;11.608;2023-03-03T11:09:41;47.50;;;30.10;;
11398;SDS011;5755;48.116;11.608;2023-03-03T11:12:20;50.72;;;30.15;;
11398;SDS011;5755;48.116;11.608;2023-03-03T11:14:55;54.88;;;30.70;;
11398;SDS011;5755;48.116;11.608;2023-03-03T11:17:42;50.72;;;30.70;;
11398;SDS011;5755;48.116;11.608;2023-03-03T11:20:24;52.03;;;31.17;;
11398;SDS011;5755;48.116;11.608;2023-03-03T11:22:59;52.20;;;30.75;;
11398;SDS011;5755;48.116;11.608;2023-03-03T11:25:38;48.20;;;29.52;;
11398;SDS011;5755;48.116;11.608;2023-03-03T11:28:14;75.47;;;44.85;;
11398;SDS011;5755;48.116;11.608;2023-03-03T11:30:53;70.88;;;42.50;;
11398;SDS011;5755;48.116;11.608;2023-03-03T11:33:42;51.88;;;31.05;;
11398;SDS011;5755;48.116;11.608;2023-03-03T11:36:20;76.43;;;45.05;;
11398;SDS011;5755;48.116;11.608;2023-03-03T11:38:53;54.95;;;32.67;;
11398;SDS011;5755;48.116;11.608;2023-03-03T11:41:28;54.28;;;31.42;;
11398;SDS011;5755;48.116;11.608;2023-03-03T11:43:59;53.70;;;32.17;;
11398;SDS011;5755;48.116;11.608;2023-03-03T11:46:35;66.72;;;42.65;;
11398;SDS011;5755;48.116;11.608;2023-03-03T11:49:08;51.45;;;32.72;;
11398;SDS011;5755;48.116;11.608;2023-03-03T11:51:46;50.38;;;31.45;;
11398;SDS011;5755;48.116;11.608;2023-03-03T11:54:21;49.00;;;32.85;;
11398;SDS011;5755;48.116;11.608;2023-03-03T11:56:51;54.72;;;32.53;;
11398;SDS011;5755;48.116;11.608;2023-03-03T12:02:30;52.63;;;31.58;;
11398;SDS011;5755;48.116;11.608;2023-03-03T12:05:10;49.83;;;31.45;;
11398;SDS011;5755;48.116;11.608;2023-03-03T12:07:56;52.03;;;30.85;;
11398;SDS011;5755;48.116;11.608;2023-03-03T12:10:30;52.05;;;33.10;;
11398;SDS011;5755;48.116;11.608;2023-03-03T12:13:01;51.92;;;32.17;;
11398;SDS011;5755;48.116;11.608;2023-03-03T12:15:32;54.40;;;32.65;;
11398;SDS011;5755;48.116;11.608;2023-03-03T12:18:13;53.58;;;31.02;;
11398;SDS011;5755;48.116;11.608;2023-03-03T12:21:02;48.53;;;29.80;;
11398;SDS011;5755;48.116;11.608;2023-03-03T12:23:58;48.83;;;30.45;;
11398;SDS011;5755;48.116;11.608;2023-03-03T12:26:39;52.60;;;31.33;;
11398;SDS011;5755;48.116;11.608;2023-03-03T12:29:29;50.88;;;31.92;;
11398;SDS011;5755;48.116;11.608;2023-03-03T12:32:03;49.67;;;30.90;;
11398;SDS011;5755;48.116;11.608;2023-03-03T12:34:39;48.80;;;31.58;;
11398;SDS011;5755;48.116;11.608;2023-03-03T12:37:18;48.15;;;31.25;;
11398;SDS011;5755;48.116;11.608;2023-03-03T12:39:58;50.38;;;31.40;;
11398;SDS011;5755;48.116;11.608;2023-03-03T12:42:45;45.78;;;31.20;;
11398;SDS011;5755;48.116;11.608;2023-03-03T12:45:36;51.28;;;31.23;;
11398;SDS011;5755;48.116;11.608;2023-03-03T12:48:15;49.70;;;31.45;;
11398;SDS011;5755;48.116;11.608;2023-03-03T12:50:47;54.53;;;33.33;;
11398;SDS011;5755;48.116;11.608;2023-03-03T12:53:44;50.13;;;31.88;;
11398;SDS011;5755;48.116;11.608;2023-03-03T12:56:25;52.05;;;31.58;;
11398;SDS011;5755;48.116;11.608;2023-03-03T12:58:59;52.38;;;31.73;;
11398;SDS011;5755;48.116;11.608;2023-03-03T13:02:12;50.78;;;32.38;;
11398;SDS011;5755;48.116;11.608;2023-03-03T13:04:54;62.03;;;39.92;;
11398;SDS011;5755;48.116;11.608;2023-03-03T13:07:27;55.42;;;33.72;;
11398;SDS011;5755;48.116;11.608;2023-03-03T13:10:06;55.55;;;33.83;;
11398;SDS011;5755;48.116;11.608;2023-03-03T13:12:42;53.85;;;33.72;;
11398;SDS011;5755;48.116;11.608;2023-03-03T13:15:13;53.15;;;31.65;;
11398;SDS011;5755;48.116;11.608;2023-03-03T13:17:45;47.50;;;30.70;;
11398;SDS011;5755;48.116;11.608;2023-03-03T13:20:21;56.72;;;33.03;;
11398;SDS011;5755;48.116;11.608;2023-03-03T13:22:58;53.65;;;34.40;;
11398;SDS011;5755;48.116;11.608;2023-03-03T13:25:45;69.15;;;44.20;;
11398;SDS011;5755;48.116;11.608;2023-03-03T13:28:32;78.13;;;48.88;;
11398;SDS011;5755;48.116;11.608;2023-03-03T13:31:04;53.47;;;34.85;;
11398;SDS011;5755;48.116;11.608;2023-03-03T13:33:36;81.72;;;50.28;;
11398;SDS011;5755;48.116;11.608;2023-03-03T13:36:06;48.65;;;31.95;;
11398;SDS011;5755;48.116;11.608;2023-03-03T13:38:36;53.25;;;32.83;;
11398;SDS011;5755;48.116;11.608;2023-03-03T13:41:08;53.05;;;31.58;;
11398;SDS011;5755;48.116;11.608;2023-03-03T13:43:44;65.40;;;39.92;;
11398;SDS011;5755;48.116;11.608;2023-03-03T13:46:16;54.42;;;33.95;;
11398;SDS011;5755;48.116;11.608;2023-03-03T13:49:00;46.40;;;30.67;;
11398;SDS011;5755;48.116;11.608;2023-03-03T13:51:37;52.33;;;32.13;;
11398;SDS011;5755;48.116;11.608;2023-03-03T13:54:12;56.67;;;33.33;;
11398;SDS011;5755;48.116;11.608;2023-03-03T13:56:58;107.88;;;66.90;;
11398;SDS011;5755;48.116;11.608;2023-03-03T13:59:44;49.97;;;31.50;;
11398;SDS011;5755;48.116;11.608;2023-03-03T14:02:24;50.85;;;30.38;;
11398;SDS011;5755;48.116;11.608;2023-03-03T14:05:08;61.30;;;39.22;;
11398;SDS011;5755;48.116;11.608;2023-03-03T14:07:42;45.60;;;30.48;;
11398;SDS011;5755;48.116;11.608;2023-03-03T14:10:17;48.90;;;30.90;;
11398;SDS011;5755;48.116;11.608;2023-03-03T14:12:50;48.03;;;29.80;;
11398;SDS011;5755;48.116;11.608;2023-03-03T14:15:28;48.40;;;30.85;;
11398;SDS011;5755;48.116;11.608;2023-03-03T14:18:01;48.45;;;30.00;;
11398;SDS011;5755;48.116;11.608;2023-03-03T14:20:50;51.17;;;31.13;;
11398;SDS011;5755;48.116;11.608;2023-03-03T14:23:19;51.28;;;30.60;;
11398;SDS011;5755;48.116;11.608;2023-03-03T14:25:55;45.92;;;29.45;;
11398;SDS011;5755;48.116;11.608;2023-03-03T14:28:24;48.90;;;31.40;;
11398;SDS011;5755;48.116;11.608;2023-03-03T14:30:55;51.10;;;30.60;;
11398;SDS011;5755;48.116;11.608;2023-03-03T14:33:27;52.05;;;29.85;;
11398;SDS011;5755;48.116;11.608;2023-03-03T14:36:00;50.65;;;30.55;;
11398;SDS011;5755;48.116;11.608;2023-03-03T14:38:37;58.40;;;31.70;;
11398;SDS011;5755;48.116;11.608;2023-03-03T14:41:15;48.00;;;29.08;;
11398;SDS011;5755;48.116;11.608;2023-03-03T14:43:45;45.28;;;29.30;;
11398;SDS011;5755;48.116;11.608;2023-03-03T14:46:31;44.60;;;28.40;;
11398;SDS011;5755;48.116;11.608;2023-03-03T14:49:01;49.17;;;29.58;;
11398;SDS011;5755;48.116;11.608;2023-03-03T14:51:30;45.05;;;28.70;;
11398;SDS011;5755;48.116;11.608;2023-03-03T14:54:05;47.75;;;28.50;;
11398;SDS011;5755;48.116;11.608;2023-03-03T14:56:51;40.50;;;27.83;;
11398;SDS011;5755;48.116;11.608;2023-03-03T14:59:22;46.15;;;28.50;;
11398;SDS011;5755;48.116;11.608;2023-03-03T15:01:55;45.47;;;27.10;;
11398;SDS011;5755;48.116;11.608;2023-03-03T15:04:24;45.85;;;28.20;;
11398;SDS011;5755;48.116;11.608;2023-03-03T15:06:52;46.78;;;29.55;;